N1972A KRME-KACK
Flight info
| Callsign | N1972A |
|---|---|
| Flight time | N/A |
| Altitude | 5000 |
| Route | UCA ALB CEF PVD MVY ACK |
| Aircraft | BE18/L-S/NC |
Departure
| Time | 2026-04-26 19:03 |
|---|---|
| Airport | Griffiss International Airport (KRME) |
Arrival
| Time | N/A |
|---|---|
| Airport | Nantucket Memorial Airport (KACK) |
| Time | Latitude | Longitude | Altitude | Speed | Heading |
|---|---|---|---|---|---|
| 2026-04-26 18:48 | 43.22947 | -75.40930 | 508 ft | 0 kts | 224° |
| 2026-04-26 18:58 | 43.22957 | -75.40916 | 508 ft | 3 kts | 224° |
| 2026-04-26 18:58 | 43.22968 | -75.40902 | 508 ft | 0 kts | 224° |
| 2026-04-26 18:59 | 43.22963 | -75.40908 | 508 ft | 2 kts | 219° |
| 2026-04-26 18:59 | 43.22943 | -75.40921 | 508 ft | 3 kts | 176° |
| 2026-04-26 18:59 | 43.22937 | -75.40885 | 508 ft | 2 kts | 12° |
| 2026-04-26 18:59 | 43.22965 | -75.40867 | 508 ft | 2 kts | 34° |
| 2026-04-26 19:00 | 43.22998 | -75.40835 | 508 ft | 12 kts | 37° |
| 2026-04-26 19:00 | 43.23073 | -75.40722 | 508 ft | 15 kts | 84° |
| 2026-04-26 19:00 | 43.23003 | -75.40583 | 508 ft | 18 kts | 130° |
| 2026-04-26 19:00 | 43.22994 | -75.40476 | 508 ft | 5 kts | 330° |
| 2026-04-26 19:01 | 43.23063 | -75.40492 | 508 ft | 15 kts | 356° |
| 2026-04-26 19:01 | 43.23163 | -75.40489 | 508 ft | 8 kts | 11° |
| 2026-04-26 19:01 | 43.23213 | -75.40485 | 508 ft | 3 kts | 351° |
| 2026-04-26 19:01 | 43.23232 | -75.40497 | 508 ft | 0 kts | 310° |
| 2026-04-26 19:02 | 43.23238 | -75.40507 | 508 ft | 15 kts | 310° |
| 2026-04-26 19:02 | 43.23462 | -75.40835 | 509 ft | 71 kts | 316° |
| 2026-04-26 19:02 | 43.23881 | -75.41404 | 531 ft | 94 kts | 315° |
| 2026-04-26 19:02 | 43.24202 | -75.41841 | 588 ft | 100 kts | 315° |
| 2026-04-26 19:03 | 43.24882 | -75.42767 | 811 ft | 109 kts | 315° |
| 2026-04-26 19:03 | 43.25153 | -75.43686 | 892 ft | 119 kts | 256° |
| 2026-04-26 19:03 | 43.24439 | -75.44089 | 932 ft | 136 kts | 155° |
| 2026-04-26 19:03 | 43.23728 | -75.43426 | 1538 ft | 97 kts | 162° |
| 2026-04-26 19:04 | 43.23047 | -75.43374 | 1705 ft | 115 kts | 176° |
| 2026-04-26 19:04 | 43.22212 | -75.43183 | 1906 ft | 122 kts | 161° |
| 2026-04-26 19:04 | 43.21488 | -75.42646 | 2234 ft | 119 kts | 143° |
| 2026-04-26 19:04 | 43.20870 | -75.41934 | 2600 ft | 111 kts | 137° |
| 2026-04-26 19:05 | 43.20050 | -75.39966 | 3103 ft | 119 kts | 107° |
| 2026-04-26 19:05 | 43.19914 | -75.38930 | 3473 ft | 110 kts | 89° |
| 2026-04-26 19:05 | 43.19693 | -75.37809 | 3496 ft | 132 kts | 110° |
| 2026-04-26 19:06 | 43.19367 | -75.36768 | 4008 ft | 110 kts | 109° |
| 2026-04-26 19:06 | 43.19058 | -75.35717 | 4064 ft | 132 kts | 107° |
| 2026-04-26 19:06 | 43.18752 | -75.34540 | 4391 ft | 124 kts | 104° |
| 2026-04-26 19:06 | 43.18618 | -75.33464 | 4752 ft | 110 kts | 72° |
| 2026-04-26 19:07 | 43.19134 | -75.33376 | 4617 ft | 131 kts | 277° |
| 2026-04-26 19:07 | 43.18541 | -75.34165 | 5018 ft | 113 kts | 227° |
| 2026-04-26 19:07 | 43.17814 | -75.34583 | 5166 ft | 123 kts | 187° |
| 2026-04-26 19:07 | 43.16995 | -75.34580 | 5437 ft | 125 kts | 174° |
| 2026-04-26 19:08 | 43.16082 | -75.34321 | 5563 ft | 136 kts | 161° |
| 2026-04-26 19:08 | 43.22947 | -75.40930 | 508 ft | 0 kts | 224° |